sensor_id;sensor_type;location;lat;lon;timestamp;pressure;altitude;pressure_sealevel;temperature;humidity
33185;BME280;19550;42.872;25.494;2023-09-19T00:00:31;96785.72;;;11.57;100.00
33185;BME280;19550;42.872;25.494;2023-09-19T00:02:59;96791.75;;;11.59;100.00
33185;BME280;19550;42.872;25.494;2023-09-19T00:05:28;96786.38;;;11.62;100.00
33185;BME280;19550;42.872;25.494;2023-09-19T00:07:56;96792.75;;;11.63;100.00
33185;BME280;19550;42.872;25.494;2023-09-19T00:10:24;96785.41;;;11.67;100.00
33185;BME280;19550;42.872;25.494;2023-09-19T00:12:52;96785.41;;;11.67;100.00
33185;BME280;19550;42.872;25.494;2023-09-19T00:15:21;96785.28;;;11.72;100.00
33185;BME280;19550;42.872;25.494;2023-09-19T00:17:48;96789.09;;;11.76;100.00
33185;BME280;19550;42.872;25.494;2023-09-19T00:20:17;96787.22;;;11.63;100.00
33185;BME280;19550;42.872;25.494;2023-09-19T00:22:49;96773.13;;;11.59;100.00
33185;BME280;19550;42.872;25.494;2023-09-19T00:25:16;96788.09;;;11.49;100.00
33185;BME280;19550;42.872;25.494;2023-09-19T00:27:42;96781.72;;;11.49;100.00
33185;BME280;19550;42.872;25.494;2023-09-19T00:30:12;96776.81;;;11.46;100.00
33185;BME280;19550;42.872;25.494;2023-09-19T00:32:42;96780.72;;;11.45;100.00
33185;BME280;19550;42.872;25.494;2023-09-19T00:35:09;96771.84;;;11.34;100.00
33185;BME280;19550;42.872;25.494;2023-09-19T00:37:40;96777.81;;;11.50;100.00
33185;BME280;19550;42.872;25.494;2023-09-19T00:40:10;96771.91;;;11.43;100.00
33185;BME280;19550;42.872;25.494;2023-09-19T00:42:38;96774.09;;;11.32;100.00
33185;BME280;19550;42.872;25.494;2023-09-19T00:45:06;96772.28;;;11.28;100.00
33185;BME280;19550;42.872;25.494;2023-09-19T00:47:35;96776.06;;;11.32;100.00
33185;BME280;19550;42.872;25.494;2023-09-19T00:50:03;96771.25;;;11.24;100.00
33185;BME280;19550;42.872;25.494;2023-09-19T00:52:33;96778.06;;;11.18;100.00
33185;BME280;19550;42.872;25.494;2023-09-19T00:55:02;96774.47;;;11.17;100.00
33185;BME280;19550;42.872;25.494;2023-09-19T00:57:30;96774.72;;;11.07;100.00
33185;BME280;19550;42.872;25.494;2023-09-19T01:00:00;96775.34;;;11.04;100.00
33185;BME280;19550;42.872;25.494;2023-09-19T01:02:31;96778.78;;;11.01;100.00
33185;BME280;19550;42.872;25.494;2023-09-19T01:04:58;96767.94;;;11.13;100.00
33185;BME280;19550;42.872;25.494;2023-09-19T01:07:25;96778.56;;;10.97;100.00
33185;BME280;19550;42.872;25.494;2023-09-19T01:09:52;96779.00;;;10.91;100.00
33185;BME280;19550;42.872;25.494;2023-09-19T01:12:28;96779.28;;;11.03;100.00
33185;BME280;19550;42.872;25.494;2023-09-19T01:15:04;96782.53;;;11.05;100.00
33185;BME280;19550;42.872;25.494;2023-09-19T01:17:39;96778.34;;;11.07;100.00
33185;BME280;19550;42.872;25.494;2023-09-19T01:20:26;96779.06;;;10.99;100.00
33185;BME280;19550;42.872;25.494;2023-09-19T01:23:07;96773.84;;;10.98;100.00
33185;BME280;19550;42.872;25.494;2023-09-19T01:26:11;96770.88;;;10.94;100.00
33185;BME280;19550;42.872;25.494;2023-09-19T01:29:11;96771.72;;;10.95;100.00
33185;BME280;19550;42.872;25.494;2023-09-19T01:31:47;96767.72;;;10.87;100.00
33185;BME280;19550;42.872;25.494;2023-09-19T01:34:15;96769.28;;;10.80;100.00
33185;BME280;19550;42.872;25.494;2023-09-19T01:36:43;96760.06;;;10.70;100.00
33185;BME280;19550;42.872;25.494;2023-09-19T01:39:11;96763.66;;;10.71;100.00
33185;BME280;19550;42.872;25.494;2023-09-19T01:41:54;96761.09;;;10.74;100.00
33185;BME280;19550;42.872;25.494;2023-09-19T01:44:30;96754.72;;;10.74;100.00
33185;BME280;19550;42.872;25.494;2023-09-19T01:47:04;96749.19;;;10.74;100.00
33185;BME280;19550;42.872;25.494;2023-09-19T01:49:44;96748.59;;;10.63;100.00
33185;BME280;19550;42.872;25.494;2023-09-19T01:52:14;96751.47;;;10.58;100.00
33185;BME280;19550;42.872;25.494;2023-09-19T01:54:46;96742.13;;;10.68;100.00
33185;BME280;19550;42.872;25.494;2023-09-19T01:57:22;96749.69;;;10.76;100.00
33185;BME280;19550;42.872;25.494;2023-09-19T02:00:00;96749.31;;;10.69;100.00
33185;BME280;19550;42.872;25.494;2023-09-19T02:02:34;96748.88;;;10.75;100.00
33185;BME280;19550;42.872;25.494;2023-09-19T02:05:01;96742.13;;;10.68;100.00
33185;BME280;19550;42.872;25.494;2023-09-19T02:07:29;96748.78;;;10.67;100.00
33185;BME280;19550;42.872;25.494;2023-09-19T02:09:57;96743.81;;;10.55;100.00
33185;BME280;19550;42.872;25.494;2023-09-19T02:12:24;96748.00;;;10.53;100.00
33185;BME280;19550;42.872;25.494;2023-09-19T02:14:51;96742.28;;;10.49;100.00
33185;BME280;19550;42.872;25.494;2023-09-19T02:17:18;96748.31;;;10.51;100.00
33185;BME280;19550;42.872;25.494;2023-09-19T02:19:46;96743.84;;;10.42;100.00
33185;BME280;19550;42.872;25.494;2023-09-19T02:22:13;96744.66;;;10.42;100.00
33185;BME280;19550;42.872;25.494;2023-09-19T02:24:41;96744.44;;;10.39;100.00
33185;BME280;19550;42.872;25.494;2023-09-19T02:27:08;96725.38;;;10.37;100.00
33185;BME280;19550;42.872;25.494;2023-09-19T02:29:38;96744.34;;;10.44;100.00
33185;BME280;19550;42.872;25.494;2023-09-19T02:32:05;96735.41;;;10.47;100.00
33185;BME280;19550;42.872;25.494;2023-09-19T02:34:31;96736.34;;;10.42;100.00
33185;BME280;19550;42.872;25.494;2023-09-19T02:37:03;96725.88;;;10.39;100.00
33185;BME280;19550;42.872;25.494;2023-09-19T02:39:31;96719.31;;;10.35;100.00
33185;BME280;19550;42.872;25.494;2023-09-19T02:41:58;96716.53;;;10.35;100.00
33185;BME280;19550;42.872;25.494;2023-09-19T02:44:25;96731.94;;;10.41;100.00
33185;BME280;19550;42.872;25.494;2023-09-19T02:46:53;96714.09;;;10.20;100.00
33185;BME280;19550;42.872;25.494;2023-09-19T02:49:19;96715.44;;;10.22;100.00
33185;BME280;19550;42.872;25.494;2023-09-19T02:51:46;96722.81;;;10.27;100.00
33185;BME280;19550;42.872;25.494;2023-09-19T02:54:15;96716.03;;;10.33;100.00
33185;BME280;19550;42.872;25.494;2023-09-19T02:56:42;96720.47;;;10.20;100.00
33185;BME280;19550;42.872;25.494;2023-09-19T02:59:09;96717.69;;;10.20;100.00
33185;BME280;19550;42.872;25.494;2023-09-19T03:01:36;96716.97;;;10.28;100.00
33185;BME280;19550;42.872;25.494;2023-09-19T03:04:04;96711.13;;;10.30;100.00
33185;BME280;19550;42.872;25.494;2023-09-19T03:06:33;96707.13;;;10.09;100.00
33185;BME280;19550;42.872;25.494;2023-09-19T03:08:59;96708.38;;;10.03;100.00
33185;BME280;19550;42.872;25.494;2023-09-19T03:11:29;96715.75;;;10.07;100.00
33185;BME280;19550;42.872;25.494;2023-09-19T03:13:56;96716.88;;;10.06;100.00
33185;BME280;19550;42.872;25.494;2023-09-19T03:16:23;96720.97;;;10.09;100.00
33185;BME280;19550;42.872;25.494;2023-09-19T03:18:51;96716.97;;;10.01;100.00
33185;BME280;19550;42.872;25.494;2023-09-19T03:21:18;96715.75;;;9.93;100.00
33185;BME280;19550;42.872;25.494;2023-09-19T03:23:47;96720.56;;;9.88;100.00
33185;BME280;19550;42.872;25.494;2023-09-19T03:26:14;96726.81;;;9.93;100.00
33185;BME280;19550;42.872;25.494;2023-09-19T03:28:43;96727.53;;;9.99;100.00
33185;BME280;19550;42.872;25.494;2023-09-19T03:31:11;96724.78;;;9.85;100.00
33185;BME280;19550;42.872;25.494;2023-09-19T03:33:38;96727.75;;;9.89;100.00
33185;BME280;19550;42.872;25.494;2023-09-19T03:36:05;96730.31;;;9.99;100.00
33185;BME280;19550;42.872;25.494;2023-09-19T03:38:33;96738.31;;;10.01;100.00
33185;BME280;19550;42.872;25.494;2023-09-19T03:41:00;96743.75;;;9.92;100.00
33185;BME280;19550;42.872;25.494;2023-09-19T03:43:27;96734.00;;;9.94;100.00
33185;BME280;19550;42.872;25.494;2023-09-19T03:45:55;96742.84;;;9.83;100.00
33185;BME280;19550;42.872;25.494;2023-09-19T03:48:22;96737.91;;;9.80;100.00
33185;BME280;19550;42.872;25.494;2023-09-19T03:50:49;96737.19;;;9.74;100.00
33185;BME280;19550;42.872;25.494;2023-09-19T03:53:16;96740.66;;;9.66;100.00
33185;BME280;19550;42.872;25.494;2023-09-19T03:55:44;96740.25;;;9.73;100.00
33185;BME280;19550;42.872;25.494;2023-09-19T03:58:11;96744.34;;;9.62;100.00
33185;BME280;19550;42.872;25.494;2023-09-19T04:00:38;96744.56;;;9.65;100.00
33185;BME280;19550;42.872;25.494;2023-09-19T04:03:07;96751.00;;;9.61;100.00
33185;BME280;19550;42.872;25.494;2023-09-19T04:05:34;96739.53;;;9.53;100.00
33185;BME280;19550;42.872;25.494;2023-09-19T04:08:01;96746.09;;;9.44;100.00
33185;BME280;19550;42.872;25.494;2023-09-19T04:10:27;96745.47;;;9.47;100.00
33185;BME280;19550;42.872;25.494;2023-09-19T04:12:55;96747.31;;;9.51;100.00
33185;BME280;19550;42.872;25.494;2023-09-19T04:15:23;96748.44;;;9.50;100.00
33185;BME280;19550;42.872;25.494;2023-09-19T04:17:50;96753.34;;;9.53;100.00
33185;BME280;19550;42.872;25.494;2023-09-19T04:20:21;96743.13;;;9.54;100.00
33185;BME280;19550;42.872;25.494;2023-09-19T04:22:49;96739.22;;;9.55;100.00
33185;BME280;19550;42.872;25.494;2023-09-19T04:25:15;96741.78;;;9.51;100.00
33185;BME280;19550;42.872;25.494;2023-09-19T04:27:44;96739.22;;;9.55;100.00
33185;BME280;19550;42.872;25.494;2023-09-19T04:30:12;96741.47;;;9.67;100.00
33185;BME280;19550;42.872;25.494;2023-09-19T04:32:40;96736.16;;;9.70;100.00
33185;BME280;19550;42.872;25.494;2023-09-19T04:35:08;96742.50;;;9.84;100.00
33185;BME280;19550;42.872;25.494;2023-09-19T04:37:38;96738.41;;;9.95;100.00
33185;BME280;19550;42.872;25.494;2023-09-19T04:40:07;96735.66;;;10.09;100.00
33185;BME280;19550;42.872;25.494;2023-09-19T04:42:39;96734.72;;;10.27;100.00
33185;BME280;19550;42.872;25.494;2023-09-19T04:45:07;96728.44;;;10.35;100.00
33185;BME280;19550;42.872;25.494;2023-09-19T04:47:36;96732.31;;;10.48;100.00
33185;BME280;19550;42.872;25.494;2023-09-19T04:50:07;96730.13;;;10.59;100.00
33185;BME280;19550;42.872;25.494;2023-09-19T04:52:39;96737.34;;;10.82;100.00
33185;BME280;19550;42.872;25.494;2023-09-19T04:55:08;96717.50;;;10.89;100.00
33185;BME280;19550;42.872;25.494;2023-09-19T04:57:36;96722.09;;;11.15;100.00
33185;BME280;19550;42.872;25.494;2023-09-19T05:00:05;96729.31;;;11.25;100.00
33185;BME280;19550;42.872;25.494;2023-09-19T05:02:38;96720.75;;;11.35;100.00
33185;BME280;19550;42.872;25.494;2023-09-19T05:05:06;96736.22;;;11.59;100.00
33185;BME280;19550;42.872;25.494;2023-09-19T05:07:33;96734.44;;;11.63;100.00
33185;BME280;19550;42.872;25.494;2023-09-19T05:10:02;96734.41;;;11.85;100.00
33185;BME280;19550;42.872;25.494;2023-09-19T05:12:31;96736.25;;;11.89;100.00
33185;BME280;19550;42.872;25.494;2023-09-19T05:14:59;96736.44;;;12.10;100.00
33185;BME280;19550;42.872;25.494;2023-09-19T05:17:26;96732.25;;;12.21;100.00
33185;BME280;19550;42.872;25.494;2023-09-19T05:19:53;96721.13;;;12.21;100.00
33185;BME280;19550;42.872;25.494;2023-09-19T05:22:20;96727.34;;;12.27;100.00
33185;BME280;19550;42.872;25.494;2023-09-19T05:24:47;96723.63;;;12.40;100.00
33185;BME280;19550;42.872;25.494;2023-09-19T05:27:15;96725.28;;;12.58;100.00
33185;BME280;19550;42.872;25.494;2023-09-19T05:29:43;96719.06;;;12.70;100.00
33185;BME280;19550;42.872;25.494;2023-09-19T05:32:09;96714.16;;;12.84;100.00
33185;BME280;19550;42.872;25.494;2023-09-19T05:34:37;96724.81;;;12.99;100.00
33185;BME280;19550;42.872;25.494;2023-09-19T05:37:04;96714.16;;;13.19;100.00
33185;BME280;19550;42.872;25.494;2023-09-19T05:39:32;96729.03;;;13.40;100.00
33185;BME280;19550;42.872;25.494;2023-09-19T05:41:59;96716.25;;;13.39;100.00
33185;BME280;19550;42.872;25.494;2023-09-19T05:57:35;96699.81;;;14.01;100.00
33185;BME280;19550;42.872;25.494;2023-09-19T06:00:03;96706.44;;;14.17;100.00
33185;BME280;19550;42.872;25.494;2023-09-19T06:02:34;96705.88;;;14.32;100.00
33185;BME280;19550;42.872;25.494;2023-09-19T06:05:01;96699.25;;;14.46;100.00
33185;BME280;19550;42.872;25.494;2023-09-19T06:07:28;96699.91;;;14.72;100.00
33185;BME280;19550;42.872;25.494;2023-09-19T06:10:02;96704.38;;;15.06;100.00
33185;BME280;19550;42.872;25.494;2023-09-19T06:12:31;96702.38;;;15.27;100.00
33185;BME280;19550;42.872;25.494;2023-09-19T06:15:00;96694.16;;;15.43;100.00
33185;BME280;19550;42.872;25.494;2023-09-19T06:17:27;96702.13;;;15.53;100.00
33185;BME280;19550;42.872;25.494;2023-09-19T06:19:54;96700.09;;;15.74;100.00
33185;BME280;19550;42.872;25.494;2023-09-19T06:22:21;96698.25;;;16.03;100.00
33185;BME280;19550;42.872;25.494;2023-09-19T06:24:49;96708.41;;;16.07;100.00
33185;BME280;19550;42.872;25.494;2023-09-19T06:27:16;96704.78;;;16.19;100.00
33185;BME280;19550;42.872;25.494;2023-09-19T06:29:43;96707.69;;;16.47;100.00
33185;BME280;19550;42.872;25.494;2023-09-19T06:32:11;96701.16;;;16.67;100.00
33185;BME280;19550;42.872;25.494;2023-09-19T06:34:38;96702.44;;;16.69;100.00
33185;BME280;19550;42.872;25.494;2023-09-19T06:37:08;96696.84;;;16.82;100.00
33185;BME280;19550;42.872;25.494;2023-09-19T06:39:35;96693.63;;;16.95;100.00
33185;BME280;19550;42.872;25.494;2023-09-19T06:42:02;96690.84;;;17.23;100.00
33185;BME280;19550;42.872;25.494;2023-09-19T06:44:29;96693.97;;;17.34;100.00
33185;BME280;19550;42.872;25.494;2023-09-19T06:46:57;96690.81;;;17.51;100.00
33185;BME280;19550;42.872;25.494;2023-09-19T06:49:25;96695.41;;;17.71;100.00
33185;BME280;19550;42.872;25.494;2023-09-19T06:51:54;96687.94;;;17.91;100.00
33185;BME280;19550;42.872;25.494;2023-09-19T06:54:22;96689.47;;;18.04;100.00
33185;BME280;19550;42.872;25.494;2023-09-19T06:56:49;96683.75;;;18.16;100.00
33185;BME280;19550;42.872;25.494;2023-09-19T06:59:16;96681.47;;;18.38;100.00
33185;BME280;19550;42.872;25.494;2023-09-19T07:01:43;96683.66;;;18.60;98.98
33185;BME280;19550;42.872;25.494;2023-09-19T07:04:10;96683.88;;;18.71;98.81
33185;BME280;19550;42.872;25.494;2023-09-19T07:06:39;96680.91;;;18.98;98.22
33185;BME280;19550;42.872;25.494;2023-09-19T07:09:06;96681.00;;;19.21;96.36
33185;BME280;19550;42.872;25.494;2023-09-19T07:11:33;96676.59;;;19.43;95.79
33185;BME280;19550;42.872;25.494;2023-09-19T07:14:00;96684.91;;;19.74;95.37
33185;BME280;19550;42.872;25.494;2023-09-19T07:16:28;96686.47;;;19.95;95.13
33185;BME280;19550;42.872;25.494;2023-09-19T07:18:56;96679.69;;;20.22;93.87
33185;BME280;19550;42.872;25.494;2023-09-19T07:21:23;96679.84;;;20.52;90.76
33185;BME280;19550;42.872;25.494;2023-09-19T07:23:51;96680.34;;;20.61;90.58
33185;BME280;19550;42.872;25.494;2023-09-19T07:26:18;96686.88;;;20.65;89.47
33185;BME280;19550;42.872;25.494;2023-09-19T07:28:44;96676.69;;;20.57;90.35
33185;BME280;19550;42.872;25.494;2023-09-19T07:31:11;96672.41;;;20.67;90.97
33185;BME280;19550;42.872;25.494;2023-09-19T07:33:40;96672.72;;;20.88;90.32
33185;BME280;19550;42.872;25.494;2023-09-19T07:36:09;96671.44;;;21.12;89.97
33185;BME280;19550;42.872;25.494;2023-09-19T07:38:39;96671.75;;;21.33;88.85
33185;BME280;19550;42.872;25.494;2023-09-19T07:41:07;96666.34;;;21.54;86.60
33185;BME280;19550;42.872;25.494;2023-09-19T07:43:35;96668.41;;;21.57;85.38
33185;BME280;19550;42.872;25.494;2023-09-19T07:46:04;96660.13;;;21.75;86.52
33185;BME280;19550;42.872;25.494;2023-09-19T07:48:32;96658.06;;;22.09;85.32
33185;BME280;19550;42.872;25.494;2023-09-19T07:51:02;96655.44;;;22.27;83.91
33185;BME280;19550;42.872;25.494;2023-09-19T07:53:29;96666.88;;;22.44;85.10
33185;BME280;19550;42.872;25.494;2023-09-19T07:56:03;96654.84;;;22.58;79.65
33185;BME280;19550;42.872;25.494;2023-09-19T07:58:32;96653.03;;;22.80;79.73
33185;BME280;19550;42.872;25.494;2023-09-19T08:01:03;96649.50;;;23.01;76.21
33185;BME280;19550;42.872;25.494;2023-09-19T08:03:30;96650.00;;;23.13;75.65
33185;BME280;19550;42.872;25.494;2023-09-19T08:05:57;96650.09;;;23.38;75.42
33185;BME280;19550;42.872;25.494;2023-09-19T08:08:24;96643.72;;;23.52;72.95
33185;BME280;19550;42.872;25.494;2023-09-19T08:10:53;96640.53;;;23.71;71.28
33185;BME280;19550;42.872;25.494;2023-09-19T08:13:21;96639.69;;;23.67;70.08
33185;BME280;19550;42.872;25.494;2023-09-19T08:15:50;96631.63;;;23.69;69.92
33185;BME280;19550;42.872;25.494;2023-09-19T08:18:18;96624.38;;;23.86;67.97
33185;BME280;19550;42.872;25.494;2023-09-19T08:20:50;96635.72;;;24.03;68.88
33185;BME280;19550;42.872;25.494;2023-09-19T08:23:17;96637.34;;;24.01;66.81
33185;BME280;19550;42.872;25.494;2023-09-19T08:25:45;96623.59;;;24.13;67.28
33185;BME280;19550;42.872;25.494;2023-09-19T08:28:12;96619.56;;;24.22;65.75
33185;BME280;19550;42.872;25.494;2023-09-19T08:30:43;96623.63;;;24.31;64.94
33185;BME280;19550;42.872;25.494;2023-09-19T08:33:11;96624.44;;;24.32;64.76
33185;BME280;19550;42.872;25.494;2023-09-19T08:35:40;96620.78;;;24.49;64.05
33185;BME280;19550;42.872;25.494;2023-09-19T08:38:08;96621.59;;;24.64;66.94
33185;BME280;19550;42.872;25.494;2023-09-19T08:40:37;96613.84;;;24.85;67.39
33185;BME280;19550;42.872;25.494;2023-09-19T08:43:05;96611.41;;;24.94;65.26
33185;BME280;19550;42.872;25.494;2023-09-19T08:45:32;96615.41;;;25.08;65.33
33185;BME280;19550;42.872;25.494;2023-09-19T08:48:07;96619.53;;;24.92;63.09
33185;BME280;19550;42.872;25.494;2023-09-19T08:50:48;96614.22;;;25.12;62.35
33185;BME280;19550;42.872;25.494;2023-09-19T08:53:19;96614.66;;;24.86;62.68
33185;BME280;19550;42.872;25.494;2023-09-19T08:55:51;96606.13;;;25.04;63.75
33185;BME280;19550;42.872;25.494;2023-09-19T08:58:20;96610.09;;;25.31;64.54
33185;BME280;19550;42.872;25.494;2023-09-19T09:00:50;96606.78;;;25.40;61.66
33185;BME280;19550;42.872;25.494;2023-09-19T09:03:20;96601.03;;;25.61;62.35
33185;BME280;19550;42.872;25.494;2023-09-19T09:05:50;96598.00;;;25.89;60.70
33185;BME280;19550;42.872;25.494;2023-09-19T09:08:18;96588.28;;;25.87;61.62
33185;BME280;19550;42.872;25.494;2023-09-19T09:10:47;96588.41;;;25.73;63.10
33185;BME280;19550;42.872;25.494;2023-09-19T09:13:14;96590.72;;;25.88;61.71
33185;BME280;19550;42.872;25.494;2023-09-19T09:15:41;96586.78;;;25.71;61.00
33185;BME280;19550;42.872;25.494;2023-09-19T09:18:10;96589.50;;;25.93;60.24
33185;BME280;19550;42.872;25.494;2023-09-19T09:20:37;96578.25;;;26.30;59.49
33185;BME280;19550;42.872;25.494;2023-09-19T09:23:05;96577.53;;;26.16;57.35
33185;BME280;19550;42.872;25.494;2023-09-19T09:25:48;96580.63;;;26.35;58.84
33185;BME280;19550;42.872;25.494;2023-09-19T09:28:20;96575.34;;;26.37;57.58
33185;BME280;19550;42.872;25.494;2023-09-19T09:30:47;96575.34;;;26.34;57.19
33185;BME280;19550;42.872;25.494;2023-09-19T09:33:14;96575.16;;;26.59;57.88
33185;BME280;19550;42.872;25.494;2023-09-19T09:35:49;96566.75;;;26.85;57.21
33185;BME280;19550;42.872;25.494;2023-09-19T09:38:19;96565.53;;;26.42;55.34
33185;BME280;19550;42.872;25.494;2023-09-19T09:40:48;96574.88;;;26.46;57.16
33185;BME280;19550;42.872;25.494;2023-09-19T09:43:30;96567.78;;;26.65;56.21
33185;BME280;19550;42.872;25.494;2023-09-19T09:46:21;96571.09;;;26.97;56.46
33185;BME280;19550;42.872;25.494;2023-09-19T09:49:05;96559.78;;;27.24;54.53
33185;BME280;19550;42.872;25.494;2023-09-19T09:51:45;96566.16;;;27.35;53.61
33185;BME280;19550;42.872;25.494;2023-09-19T09:54:25;96558.50;;;27.28;53.10
33185;BME280;19550;42.872;25.494;2023-09-19T09:57:00;96564.53;;;27.04;52.35
33185;BME280;19550;42.872;25.494;2023-09-19T09:59:46;96557.38;;;27.22;51.80
33185;BME280;19550;42.872;25.494;2023-09-19T10:02:13;96573.88;;;27.35;51.05
33185;BME280;19550;42.872;25.494;2023-09-19T10:04:48;96568.97;;;27.39;51.23
33185;BME280;19550;42.872;25.494;2023-09-19T10:07:33;96575.91;;;27.34;51.43
33185;BME280;19550;42.872;25.494;2023-09-19T10:10:08;96571.38;;;27.40;51.53
33185;BME280;19550;42.872;25.494;2023-09-19T10:12:55;96558.47;;;27.62;49.92
33185;BME280;19550;42.872;25.494;2023-09-19T10:15:24;96562.69;;;27.81;49.77
33185;BME280;19550;42.872;25.494;2023-09-19T10:17:55;96565.03;;;27.86;47.99
33185;BME280;19550;42.872;25.494;2023-09-19T10:20:24;96558.00;;;27.94;47.67
33185;BME280;19550;42.872;25.494;2023-09-19T10:23:07;96553.84;;;27.99;47.49
33185;BME280;19550;42.872;25.494;2023-09-19T10:25:38;96552.25;;;27.98;48.85
33185;BME280;19550;42.872;25.494;2023-09-19T10:28:06;96545.38;;;27.95;47.67
33185;BME280;19550;42.872;25.494;2023-09-19T10:30:37;96549.03;;;28.23;47.39
33185;BME280;19550;42.872;25.494;2023-09-19T10:33:04;96549.00;;;28.46;47.59
33185;BME280;19550;42.872;25.494;2023-09-19T10:35:32;96540.91;;;27.94;45.53
33185;BME280;19550;42.872;25.494;2023-09-19T10:38:00;96544.25;;;28.16;48.18
33185;BME280;19550;42.872;25.494;2023-09-19T10:40:28;96539.06;;;28.07;45.83
33185;BME280;19550;42.872;25.494;2023-09-19T10:43:03;96536.94;;;27.88;47.52
33185;BME280;19550;42.872;25.494;2023-09-19T10:45:32;96534.25;;;27.47;55.75
33185;BME280;19550;42.872;25.494;2023-09-19T10:47:59;96532.78;;;27.36;55.29
33185;BME280;19550;42.872;25.494;2023-09-19T10:50:31;96537.16;;;27.44;51.74
33185;BME280;19550;42.872;25.494;2023-09-19T10:53:00;96535.22;;;27.67;48.75
33185;BME280;19550;42.872;25.494;2023-09-19T10:55:33;96528.66;;;27.97;48.29
33185;BME280;19550;42.872;25.494;2023-09-19T10:58:03;96533.00;;;28.05;46.76
33185;BME280;19550;42.872;25.494;2023-09-19T11:00:53;96529.44;;;28.25;46.65
33185;BME280;19550;42.872;25.494;2023-09-19T11:03:22;96530.81;;;28.17;46.85
33185;BME280;19550;42.872;25.494;2023-09-19T11:06:02;96527.81;;;28.47;46.36
33185;BME280;19550;42.872;25.494;2023-09-19T11:08:30;96532.59;;;28.73;45.59
33185;BME280;19550;42.872;25.494;2023-09-19T11:10:58;96527.16;;;28.59;46.78
33185;BME280;19550;42.872;25.494;2023-09-19T11:13:27;96519.88;;;28.58;45.96
33185;BME280;19550;42.872;25.494;2023-09-19T11:16:18;96521.53;;;28.79;46.31
33185;BME280;19550;42.872;25.494;2023-09-19T11:18:52;96520.00;;;29.14;45.32
33185;BME280;19550;42.872;25.494;2023-09-19T11:21:52;96517.75;;;29.25;46.29
33185;BME280;19550;42.872;25.494;2023-09-19T11:24:30;96512.66;;;29.52;44.29
33185;BME280;19550;42.872;25.494;2023-09-19T11:27:12;96510.72;;;29.66;43.05
33185;BME280;19550;42.872;25.494;2023-09-19T11:29:40;96511.19;;;29.80;43.79
33185;BME280;19550;42.872;25.494;2023-09-19T11:32:07;96506.25;;;30.00;43.33
33185;BME280;19550;42.872;25.494;2023-09-19T11:34:45;96509.56;;;30.15;43.92
33185;BME280;19550;42.872;25.494;2023-09-19T11:40:36;96499.38;;;29.98;46.73
33185;BME280;19550;42.872;25.494;2023-09-19T11:43:30;96498.72;;;29.90;47.94
33185;BME280;19550;42.872;25.494;2023-09-19T11:46:19;96498.22;;;29.95;46.04
33185;BME280;19550;42.872;25.494;2023-09-19T11:48:49;96493.47;;;30.05;43.04
33185;BME280;19550;42.872;25.494;2023-09-19T11:51:17;96482.16;;;30.47;45.35
33185;BME280;19550;42.872;25.494;2023-09-19T11:53:53;96486.47;;;29.90;42.93
33185;BME280;19550;42.872;25.494;2023-09-19T11:56:21;96481.75;;;30.16;43.09
33185;BME280;19550;42.872;25.494;2023-09-19T11:58:50;96491.66;;;30.27;44.65
33185;BME280;19550;42.872;25.494;2023-09-19T12:01:24;96483.16;;;30.40;42.68
33185;BME280;19550;42.872;25.494;2023-09-19T12:03:55;96475.59;;;30.17;39.44
33185;BME280;19550;42.872;25.494;2023-09-19T12:06:23;96481.38;;;30.46;41.52
33185;BME280;19550;42.872;25.494;2023-09-19T12:08:51;96466.34;;;30.58;40.11
33185;BME280;19550;42.872;25.494;2023-09-19T12:11:21;96460.03;;;30.79;38.61
33185;BME280;19550;42.872;25.494;2023-09-19T12:13:49;96464.34;;;30.71;40.67
33185;BME280;19550;42.872;25.494;2023-09-19T12:16:19;96459.31;;;30.30;40.43
33185;BME280;19550;42.872;25.494;2023-09-19T12:18:50;96457.75;;;29.97;39.97
33185;BME280;19550;42.872;25.494;2023-09-19T12:21:27;96454.16;;;29.93;39.63
33185;BME280;19550;42.872;25.494;2023-09-19T12:23:59;96461.63;;;29.87;39.92
33185;BME280;19550;42.872;25.494;2023-09-19T12:26:30;96456.91;;;29.64;42.00
33185;BME280;19550;42.872;25.494;2023-09-19T12:29:05;96462.03;;;29.17;40.51
33185;BME280;19550;42.872;25.494;2023-09-19T12:31:32;96469.44;;;28.95;40.84
33185;BME280;19550;42.872;25.494;2023-09-19T12:34:03;96466.09;;;28.57;44.88
33185;BME280;19550;42.872;25.494;2023-09-19T12:36:30;96454.97;;;28.19;50.25
33185;BME280;19550;42.872;25.494;2023-09-19T12:38:59;96467.19;;;27.96;52.65
33185;BME280;19550;42.872;25.494;2023-09-19T12:41:27;96458.69;;;27.70;50.81
33185;BME280;19550;42.872;25.494;2023-09-19T12:43:54;96459.59;;;27.63;51.29
33185;BME280;19550;42.872;25.494;2023-09-19T12:46:21;96464.78;;;27.41;53.44
33185;BME280;19550;42.872;25.494;2023-09-19T12:49:16;96474.41;;;27.24;56.43
33185;BME280;19550;42.872;25.494;2023-09-19T12:51:44;96456.66;;;27.40;60.90
33185;BME280;19550;42.872;25.494;2023-09-19T12:54:11;96461.19;;;27.91;56.67
33185;BME280;19550;42.872;25.494;2023-09-19T12:56:40;96463.34;;;28.30;57.88
33185;BME280;19550;42.872;25.494;2023-09-19T12:59:11;96453.41;;;28.81;52.54
33185;BME280;19550;42.872;25.494;2023-09-19T13:01:39;96461.81;;;29.08;46.75
33185;BME280;19550;42.872;25.494;2023-09-19T13:04:11;96463.69;;;29.70;44.15
33185;BME280;19550;42.872;25.494;2023-09-19T13:06:41;96455.69;;;29.97;46.32
33185;BME280;19550;42.872;25.494;2023-09-19T13:09:09;96465.75;;;30.34;38.62
33185;BME280;19550;42.872;25.494;2023-09-19T13:11:37;96456.50;;;30.88;36.04
33185;BME280;19550;42.872;25.494;2023-09-19T13:14:19;96451.47;;;31.21;35.46
33185;BME280;19550;42.872;25.494;2023-09-19T13:16:56;96455.00;;;31.12;41.87